sensor_id;sensor_type;location;lat;lon;timestamp;P1;durP1;ratioP1;P2;durP2;ratioP2
65835;SDS011;52595;51.608;7.216;2024-02-21T00:01:25;20.98;;;9.20;;
65835;SDS011;52595;51.608;7.216;2024-02-21T00:03:50;23.77;;;10.02;;
65835;SDS011;52595;51.608;7.216;2024-02-21T00:06:16;27.65;;;10.25;;
65835;SDS011;52595;51.608;7.216;2024-02-21T00:08:41;23.23;;;9.43;;
65835;SDS011;52595;51.608;7.216;2024-02-21T00:11:06;26.35;;;9.15;;
65835;SDS011;52595;51.608;7.216;2024-02-21T00:13:32;24.25;;;8.50;;
65835;SDS011;52595;51.608;7.216;2024-02-21T00:15:57;25.23;;;8.98;;
65835;SDS011;52595;51.608;7.216;2024-02-21T00:18:25;21.08;;;9.13;;
65835;SDS011;52595;51.608;7.216;2024-02-21T00:20:50;25.17;;;9.27;;
65835;SDS011;52595;51.608;7.216;2024-02-21T00:23:15;25.38;;;9.13;;
65835;SDS011;52595;51.608;7.216;2024-02-21T00:25:41;22.95;;;9.32;;
65835;SDS011;52595;51.608;7.216;2024-02-21T00:28:06;22.98;;;9.32;;
65835;SDS011;52595;51.608;7.216;2024-02-21T00:30:31;22.35;;;9.90;;
65835;SDS011;52595;51.608;7.216;2024-02-21T00:32:57;20.45;;;9.20;;
65835;SDS011;52595;51.608;7.216;2024-02-21T00:35:24;27.17;;;9.80;;
65835;SDS011;52595;51.608;7.216;2024-02-21T00:37:49;26.27;;;9.15;;
65835;SDS011;52595;51.608;7.216;2024-02-21T00:40:16;22.77;;;10.52;;
65835;SDS011;52595;51.608;7.216;2024-02-21T00:42:45;28.88;;;11.35;;
65835;SDS011;52595;51.608;7.216;2024-02-21T00:45:10;29.35;;;11.07;;
65835;SDS011;52595;51.608;7.216;2024-02-21T00:47:36;35.97;;;13.00;;
65835;SDS011;52595;51.608;7.216;2024-02-21T00:50:01;27.95;;;10.63;;
65835;SDS011;52595;51.608;7.216;2024-02-21T00:52:27;32.20;;;10.60;;
65835;SDS011;52595;51.608;7.216;2024-02-21T00:54:52;32.55;;;11.40;;
65835;SDS011;52595;51.608;7.216;2024-02-21T00:57:18;28.45;;;10.35;;
65835;SDS011;52595;51.608;7.216;2024-02-21T00:59:43;35.05;;;11.68;;
65835;SDS011;52595;51.608;7.216;2024-02-21T01:02:08;33.08;;;12.02;;
65835;SDS011;52595;51.608;7.216;2024-02-21T01:04:34;30.23;;;11.25;;
65835;SDS011;52595;51.608;7.216;2024-02-21T01:07:00;28.90;;;10.35;;
65835;SDS011;52595;51.608;7.216;2024-02-21T01:09:25;23.52;;;9.80;;
65835;SDS011;52595;51.608;7.216;2024-02-21T01:11:50;26.52;;;10.75;;
65835;SDS011;52595;51.608;7.216;2024-02-21T01:14:16;23.35;;;10.32;;
65835;SDS011;52595;51.608;7.216;2024-02-21T01:16:41;28.92;;;9.75;;
65835;SDS011;52595;51.608;7.216;2024-02-21T01:19:07;24.88;;;9.52;;
65835;SDS011;52595;51.608;7.216;2024-02-21T01:21:33;28.20;;;9.60;;
65835;SDS011;52595;51.608;7.216;2024-02-21T01:23:58;27.63;;;10.35;;
65835;SDS011;52595;51.608;7.216;2024-02-21T01:26:24;31.38;;;11.10;;
65835;SDS011;52595;51.608;7.216;2024-02-21T01:28:49;23.63;;;9.82;;
65835;SDS011;52595;51.608;7.216;2024-02-21T01:31:15;22.45;;;9.60;;
65835;SDS011;52595;51.608;7.216;2024-02-21T01:33:40;24.95;;;10.13;;
65835;SDS011;52595;51.608;7.216;2024-02-21T01:36:06;28.05;;;9.43;;
65835;SDS011;52595;51.608;7.216;2024-02-21T01:38:32;28.05;;;9.10;;
65835;SDS011;52595;51.608;7.216;2024-02-21T01:40:58;23.88;;;9.95;;
65835;SDS011;52595;51.608;7.216;2024-02-21T01:43:23;26.42;;;9.45;;
65835;SDS011;52595;51.608;7.216;2024-02-21T01:45:49;29.77;;;10.40;;
65835;SDS011;52595;51.608;7.216;2024-02-21T01:48:17;19.38;;;9.70;;
65835;SDS011;52595;51.608;7.216;2024-02-21T01:50:44;21.20;;;8.65;;
65835;SDS011;52595;51.608;7.216;2024-02-21T01:53:10;21.13;;;8.77;;
65835;SDS011;52595;51.608;7.216;2024-02-21T01:55:42;26.08;;;9.77;;
65835;SDS011;52595;51.608;7.216;2024-02-21T01:58:09;25.77;;;10.02;;
65835;SDS011;52595;51.608;7.216;2024-02-21T02:00:34;23.15;;;9.15;;
65835;SDS011;52595;51.608;7.216;2024-02-21T02:03:01;25.85;;;9.63;;
65835;SDS011;52595;51.608;7.216;2024-02-21T02:05:27;28.77;;;9.98;;
65835;SDS011;52595;51.608;7.216;2024-02-21T02:07:53;21.52;;;9.25;;
65835;SDS011;52595;51.608;7.216;2024-02-21T02:10:19;25.35;;;10.48;;
65835;SDS011;52595;51.608;7.216;2024-02-21T02:12:44;26.60;;;9.45;;
65835;SDS011;52595;51.608;7.216;2024-02-21T02:15:09;26.73;;;9.30;;
65835;SDS011;52595;51.608;7.216;2024-02-21T02:17:35;21.67;;;8.55;;
65835;SDS011;52595;51.608;7.216;2024-02-21T02:20:00;22.52;;;8.77;;
65835;SDS011;52595;51.608;7.216;2024-02-21T02:22:29;25.33;;;9.25;;
65835;SDS011;52595;51.608;7.216;2024-02-21T02:27:22;19.50;;;8.55;;
65835;SDS011;52595;51.608;7.216;2024-02-21T02:29:49;23.63;;;9.27;;
65835;SDS011;52595;51.608;7.216;2024-02-21T02:32:15;23.80;;;9.45;;
65835;SDS011;52595;51.608;7.216;2024-02-21T02:34:40;17.77;;;8.63;;
65835;SDS011;52595;51.608;7.216;2024-02-21T02:37:06;22.75;;;9.55;;
65835;SDS011;52595;51.608;7.216;2024-02-21T02:39:31;28.05;;;9.35;;
65835;SDS011;52595;51.608;7.216;2024-02-21T02:41:57;27.08;;;9.20;;
65835;SDS011;52595;51.608;7.216;2024-02-21T02:44:22;24.98;;;9.30;;
65835;SDS011;52595;51.608;7.216;2024-02-21T02:46:47;21.33;;;8.77;;
65835;SDS011;52595;51.608;7.216;2024-02-21T02:49:13;20.65;;;9.10;;
65835;SDS011;52595;51.608;7.216;2024-02-21T02:51:42;25.85;;;9.25;;
65835;SDS011;52595;51.608;7.216;2024-02-21T02:54:08;21.20;;;8.87;;
65835;SDS011;52595;51.608;7.216;2024-02-21T02:56:34;22.38;;;8.75;;
65835;SDS011;52595;51.608;7.216;2024-02-21T02:58:59;25.20;;;8.60;;
65835;SDS011;52595;51.608;7.216;2024-02-21T03:01:24;25.77;;;9.23;;
65835;SDS011;52595;51.608;7.216;2024-02-21T03:03:50;23.92;;;9.23;;
65835;SDS011;52595;51.608;7.216;2024-02-21T03:06:15;22.13;;;9.40;;
65835;SDS011;52595;51.608;7.216;2024-02-21T03:08:40;23.48;;;9.57;;
65835;SDS011;52595;51.608;7.216;2024-02-21T03:11:06;24.13;;;9.07;;
65835;SDS011;52595;51.608;7.216;2024-02-21T03:13:31;21.15;;;9.02;;
65835;SDS011;52595;51.608;7.216;2024-02-21T03:15:57;22.27;;;8.80;;
65835;SDS011;52595;51.608;7.216;2024-02-21T03:18:22;26.05;;;9.35;;
65835;SDS011;52595;51.608;7.216;2024-02-21T03:20:47;22.50;;;9.02;;
65835;SDS011;52595;51.608;7.216;2024-02-21T03:23:13;26.08;;;9.57;;
65835;SDS011;52595;51.608;7.216;2024-02-21T03:25:38;21.45;;;9.02;;
65835;SDS011;52595;51.608;7.216;2024-02-21T03:28:04;21.52;;;8.40;;
65835;SDS011;52595;51.608;7.216;2024-02-21T03:30:29;25.50;;;8.55;;
65835;SDS011;52595;51.608;7.216;2024-02-21T03:32:54;20.98;;;8.38;;
65835;SDS011;52595;51.608;7.216;2024-02-21T03:35:20;21.27;;;9.05;;
65835;SDS011;52595;51.608;7.216;2024-02-21T03:37:45;21.52;;;9.13;;
65835;SDS011;52595;51.608;7.216;2024-02-21T03:40:11;20.92;;;8.75;;
65835;SDS011;52595;51.608;7.216;2024-02-21T03:42:37;18.75;;;8.75;;
65835;SDS011;52595;51.608;7.216;2024-02-21T03:45:03;23.77;;;9.32;;
65835;SDS011;52595;51.608;7.216;2024-02-21T03:47:28;24.45;;;9.85;;
65835;SDS011;52595;51.608;7.216;2024-02-21T03:49:54;24.40;;;9.77;;
65835;SDS011;52595;51.608;7.216;2024-02-21T03:52:19;20.55;;;8.50;;
65835;SDS011;52595;51.608;7.216;2024-02-21T03:54:45;21.67;;;8.65;;
65835;SDS011;52595;51.608;7.216;2024-02-21T03:57:10;21.92;;;8.90;;
65835;SDS011;52595;51.608;7.216;2024-02-21T03:59:36;21.48;;;9.02;;
65835;SDS011;52595;51.608;7.216;2024-02-21T04:02:01;16.95;;;7.28;;
65835;SDS011;52595;51.608;7.216;2024-02-21T04:04:29;25.25;;;8.88;;
65835;SDS011;52595;51.608;7.216;2024-02-21T04:06:54;22.35;;;8.60;;
65835;SDS011;52595;51.608;7.216;2024-02-21T04:09:19;19.60;;;8.30;;
65835;SDS011;52595;51.608;7.216;2024-02-21T04:11:45;18.75;;;8.35;;
65835;SDS011;52595;51.608;7.216;2024-02-21T04:14:10;20.73;;;8.68;;
65835;SDS011;52595;51.608;7.216;2024-02-21T04:16:38;20.13;;;8.20;;
65835;SDS011;52595;51.608;7.216;2024-02-21T04:19:04;22.60;;;9.07;;
65835;SDS011;52595;51.608;7.216;2024-02-21T04:21:30;23.27;;;9.38;;
65835;SDS011;52595;51.608;7.216;2024-02-21T04:23:55;21.38;;;8.30;;
65835;SDS011;52595;51.608;7.216;2024-02-21T04:26:20;21.92;;;8.68;;
65835;SDS011;52595;51.608;7.216;2024-02-21T04:28:46;18.55;;;8.70;;
65835;SDS011;52595;51.608;7.216;2024-02-21T04:31:12;20.95;;;8.18;;
65835;SDS011;52595;51.608;7.216;2024-02-21T04:33:37;19.15;;;8.65;;
65835;SDS011;52595;51.608;7.216;2024-02-21T04:36:03;17.58;;;6.97;;
65835;SDS011;52595;51.608;7.216;2024-02-21T04:38:28;25.63;;;8.60;;
65835;SDS011;52595;51.608;7.216;2024-02-21T04:40:55;21.88;;;8.65;;
65835;SDS011;52595;51.608;7.216;2024-02-21T04:43:23;24.15;;;8.30;;
65835;SDS011;52595;51.608;7.216;2024-02-21T04:45:49;22.90;;;8.85;;
65835;SDS011;52595;51.608;7.216;2024-02-21T04:48:14;23.20;;;9.68;;
65835;SDS011;52595;51.608;7.216;2024-02-21T04:50:40;23.73;;;9.30;;
65835;SDS011;52595;51.608;7.216;2024-02-21T04:53:06;23.40;;;8.95;;
65835;SDS011;52595;51.608;7.216;2024-02-21T04:55:31;22.70;;;8.57;;
65835;SDS011;52595;51.608;7.216;2024-02-21T04:57:57;23.92;;;7.93;;
65835;SDS011;52595;51.608;7.216;2024-02-21T05:00:22;17.52;;;8.77;;
65835;SDS011;52595;51.608;7.216;2024-02-21T05:02:48;21.98;;;8.02;;
65835;SDS011;52595;51.608;7.216;2024-02-21T05:05:13;20.88;;;7.80;;
65835;SDS011;52595;51.608;7.216;2024-02-21T05:07:40;16.52;;;7.82;;
65835;SDS011;52595;51.608;7.216;2024-02-21T05:10:06;21.75;;;7.53;;
65835;SDS011;52595;51.608;7.216;2024-02-21T05:12:32;20.40;;;8.30;;
65835;SDS011;52595;51.608;7.216;2024-02-21T05:14:57;22.77;;;7.90;;
65835;SDS011;52595;51.608;7.216;2024-02-21T05:17:23;21.05;;;7.93;;
65835;SDS011;52595;51.608;7.216;2024-02-21T05:19:48;19.73;;;7.90;;
65835;SDS011;52595;51.608;7.216;2024-02-21T05:22:13;19.10;;;7.05;;
65835;SDS011;52595;51.608;7.216;2024-02-21T05:24:39;24.45;;;7.97;;
65835;SDS011;52595;51.608;7.216;2024-02-21T05:27:05;18.88;;;7.13;;
65835;SDS011;52595;51.608;7.216;2024-02-21T05:29:30;17.15;;;7.40;;
65835;SDS011;52595;51.608;7.216;2024-02-21T05:31:56;15.25;;;6.22;;
65835;SDS011;52595;51.608;7.216;2024-02-21T05:34:25;18.67;;;6.20;;
65835;SDS011;52595;51.608;7.216;2024-02-21T05:36:50;15.50;;;7.13;;
65835;SDS011;52595;51.608;7.216;2024-02-21T05:39:17;17.95;;;6.40;;
65835;SDS011;52595;51.608;7.216;2024-02-21T05:41:42;15.75;;;6.20;;
65835;SDS011;52595;51.608;7.216;2024-02-21T05:44:08;19.75;;;6.15;;
65835;SDS011;52595;51.608;7.216;2024-02-21T05:46:33;13.70;;;6.43;;
65835;SDS011;52595;51.608;7.216;2024-02-21T05:48:59;18.08;;;6.70;;
65835;SDS011;52595;51.608;7.216;2024-02-21T05:51:24;13.80;;;6.30;;
65835;SDS011;52595;51.608;7.216;2024-02-21T05:53:49;17.25;;;6.45;;
65835;SDS011;52595;51.608;7.216;2024-02-21T05:56:15;15.20;;;6.28;;
65835;SDS011;52595;51.608;7.216;2024-02-21T05:58:40;15.70;;;6.15;;
65835;SDS011;52595;51.608;7.216;2024-02-21T06:01:06;15.18;;;6.28;;
65835;SDS011;52595;51.608;7.216;2024-02-21T06:03:33;16.13;;;5.72;;
65835;SDS011;52595;51.608;7.216;2024-02-21T06:05:59;14.65;;;5.93;;
65835;SDS011;52595;51.608;7.216;2024-02-21T06:08:25;12.98;;;5.90;;
65835;SDS011;52595;51.608;7.216;2024-02-21T06:10:50;15.65;;;5.72;;
65835;SDS011;52595;51.608;7.216;2024-02-21T06:13:20;17.58;;;6.40;;
65835;SDS011;52595;51.608;7.216;2024-02-21T06:15:46;13.23;;;6.00;;
65835;SDS011;52595;51.608;7.216;2024-02-21T06:18:12;15.63;;;5.88;;
65835;SDS011;52595;51.608;7.216;2024-02-21T06:20:37;13.38;;;5.43;;
65835;SDS011;52595;51.608;7.216;2024-02-21T06:23:05;11.93;;;5.00;;
65835;SDS011;52595;51.608;7.216;2024-02-21T06:25:31;16.65;;;5.57;;
65835;SDS011;52595;51.608;7.216;2024-02-21T06:27:56;13.98;;;5.20;;
65835;SDS011;52595;51.608;7.216;2024-02-21T06:30:21;14.60;;;5.28;;
65835;SDS011;52595;51.608;7.216;2024-02-21T06:32:47;13.85;;;5.18;;
65835;SDS011;52595;51.608;7.216;2024-02-21T06:35:12;13.18;;;5.22;;
65835;SDS011;52595;51.608;7.216;2024-02-21T06:37:37;9.07;;;4.13;;
65835;SDS011;52595;51.608;7.216;2024-02-21T06:40:03;13.27;;;5.40;;
65835;SDS011;52595;51.608;7.216;2024-02-21T06:42:29;12.18;;;5.07;;
65835;SDS011;52595;51.608;7.216;2024-02-21T06:44:55;13.10;;;4.93;;
65835;SDS011;52595;51.608;7.216;2024-02-21T06:47:21;10.93;;;4.70;;
65835;SDS011;52595;51.608;7.216;2024-02-21T06:49:50;15.85;;;5.35;;
65835;SDS011;52595;51.608;7.216;2024-02-21T06:52:19;11.65;;;4.75;;
65835;SDS011;52595;51.608;7.216;2024-02-21T06:54:45;13.35;;;4.90;;
65835;SDS011;52595;51.608;7.216;2024-02-21T06:57:12;15.55;;;5.20;;
65835;SDS011;52595;51.608;7.216;2024-02-21T06:59:39;13.00;;;5.10;;
65835;SDS011;52595;51.608;7.216;2024-02-21T07:02:05;12.35;;;5.32;;
65835;SDS011;52595;51.608;7.216;2024-02-21T07:04:30;14.55;;;4.82;;
65835;SDS011;52595;51.608;7.216;2024-02-21T07:06:56;10.23;;;5.13;;
65835;SDS011;52595;51.608;7.216;2024-02-21T07:09:21;11.75;;;4.78;;
65835;SDS011;52595;51.608;7.216;2024-02-21T07:11:46;10.95;;;4.88;;
65835;SDS011;52595;51.608;7.216;2024-02-21T07:14:13;11.27;;;4.82;;
65835;SDS011;52595;51.608;7.216;2024-02-21T07:16:39;15.82;;;5.50;;
65835;SDS011;52595;51.608;7.216;2024-02-21T07:19:05;10.68;;;4.50;;
65835;SDS011;52595;51.608;7.216;2024-02-21T07:21:30;10.50;;;4.60;;
65835;SDS011;52595;51.608;7.216;2024-02-21T07:23:56;11.57;;;4.85;;
65835;SDS011;52595;51.608;7.216;2024-02-21T07:26:21;10.13;;;5.18;;
65835;SDS011;52595;51.608;7.216;2024-02-21T07:28:47;11.88;;;4.82;;
65835;SDS011;52595;51.608;7.216;2024-02-21T07:31:12;14.35;;;5.22;;
65835;SDS011;52595;51.608;7.216;2024-02-21T07:33:37;14.30;;;4.57;;
65835;SDS011;52595;51.608;7.216;2024-02-21T07:36:10;12.15;;;4.85;;
65835;SDS011;52595;51.608;7.216;2024-02-21T07:38:36;11.50;;;4.63;;
65835;SDS011;52595;51.608;7.216;2024-02-21T07:41:02;12.52;;;4.93;;
65835;SDS011;52595;51.608;7.216;2024-02-21T07:43:29;9.90;;;4.78;;
65835;SDS011;52595;51.608;7.216;2024-02-21T07:45:54;12.98;;;4.60;;
65835;SDS011;52595;51.608;7.216;2024-02-21T07:48:20;11.05;;;5.35;;
65835;SDS011;52595;51.608;7.216;2024-02-21T07:50:49;13.85;;;5.50;;
65835;SDS011;52595;51.608;7.216;2024-02-21T07:53:15;12.13;;;5.30;;
65835;SDS011;52595;51.608;7.216;2024-02-21T07:55:40;12.05;;;4.93;;
65835;SDS011;52595;51.608;7.216;2024-02-21T07:58:05;15.80;;;5.18;;
65835;SDS011;52595;51.608;7.216;2024-02-21T08:00:31;13.75;;;5.60;;
65835;SDS011;52595;51.608;7.216;2024-02-21T08:02:56;11.95;;;4.95;;
65835;SDS011;52595;51.608;7.216;2024-02-21T08:05:22;11.77;;;4.90;;
65835;SDS011;52595;51.608;7.216;2024-02-21T08:07:48;14.43;;;4.90;;
65835;SDS011;52595;51.608;7.216;2024-02-21T08:10:13;15.02;;;4.93;;
65835;SDS011;52595;51.608;7.216;2024-02-21T08:12:39;9.70;;;4.72;;
65835;SDS011;52595;51.608;7.216;2024-02-21T08:15:04;11.68;;;4.60;;
65835;SDS011;52595;51.608;7.216;2024-02-21T08:17:30;11.55;;;4.63;;
65835;SDS011;52595;51.608;7.216;2024-02-21T08:19:55;13.57;;;5.03;;
65835;SDS011;52595;51.608;7.216;2024-02-21T08:22:21;14.57;;;4.90;;
65835;SDS011;52595;51.608;7.216;2024-02-21T08:24:46;10.30;;;4.70;;
65835;SDS011;52595;51.608;7.216;2024-02-21T08:27:12;8.98;;;4.85;;
65835;SDS011;52595;51.608;7.216;2024-02-21T08:29:37;10.35;;;4.57;;
65835;SDS011;52595;51.608;7.216;2024-02-21T08:32:03;12.27;;;4.68;;
65835;SDS011;52595;51.608;7.216;2024-02-21T08:34:28;10.68;;;4.82;;
65835;SDS011;52595;51.608;7.216;2024-02-21T08:36:55;11.63;;;4.88;;
65835;SDS011;52595;51.608;7.216;2024-02-21T08:39:20;10.65;;;4.80;;
65835;SDS011;52595;51.608;7.216;2024-02-21T08:41:46;13.65;;;4.78;;
65835;SDS011;52595;51.608;7.216;2024-02-21T08:44:11;10.57;;;3.90;;
65835;SDS011;52595;51.608;7.216;2024-02-21T08:46:37;9.95;;;4.72;;
65835;SDS011;52595;51.608;7.216;2024-02-21T08:49:05;10.70;;;4.15;;
65835;SDS011;52595;51.608;7.216;2024-02-21T08:51:31;9.43;;;4.50;;
65835;SDS011;52595;51.608;7.216;2024-02-21T08:53:56;9.40;;;3.85;;
65835;SDS011;52595;51.608;7.216;2024-02-21T08:56:21;11.25;;;4.40;;
65835;SDS011;52595;51.608;7.216;2024-02-21T08:58:47;7.95;;;3.72;;
65835;SDS011;52595;51.608;7.216;2024-02-21T09:01:12;13.48;;;4.10;;
65835;SDS011;52595;51.608;7.216;2024-02-21T09:03:38;10.95;;;3.92;;
65835;SDS011;52595;51.608;7.216;2024-02-21T09:06:04;12.35;;;3.88;;
65835;SDS011;52595;51.608;7.216;2024-02-21T09:08:30;9.27;;;3.97;;
65835;SDS011;52595;51.608;7.216;2024-02-21T09:10:56;10.73;;;3.53;;
65835;SDS011;52595;51.608;7.216;2024-02-21T09:13:22;10.05;;;4.60;;
65835;SDS011;52595;51.608;7.216;2024-02-21T09:15:48;10.23;;;4.32;;
65835;SDS011;52595;51.608;7.216;2024-02-21T09:18:14;9.38;;;3.65;;
65835;SDS011;52595;51.608;7.216;2024-02-21T09:20:40;11.65;;;4.35;;
65835;SDS011;52595;51.608;7.216;2024-02-21T09:23:06;12.35;;;4.20;;
65835;SDS011;52595;51.608;7.216;2024-02-21T09:25:31;11.10;;;4.32;;
65835;SDS011;52595;51.608;7.216;2024-02-21T09:27:56;9.50;;;3.88;;
65835;SDS011;52595;51.608;7.216;2024-02-21T09:30:23;17.02;;;4.63;;
65835;SDS011;52595;51.608;7.216;2024-02-21T09:32:48;9.07;;;4.10;;
65835;SDS011;52595;51.608;7.216;2024-02-21T09:35:14;17.05;;;5.00;;
65835;SDS011;52595;51.608;7.216;2024-02-21T09:37:40;10.13;;;3.92;;
65835;SDS011;52595;51.608;7.216;2024-02-21T09:40:05;9.77;;;3.88;;
65835;SDS011;52595;51.608;7.216;2024-02-21T09:42:38;11.85;;;4.07;;
65835;SDS011;52595;51.608;7.216;2024-02-21T09:45:08;10.23;;;3.90;;
65835;SDS011;52595;51.608;7.216;2024-02-21T09:47:43;11.07;;;4.00;;
65835;SDS011;52595;51.608;7.216;2024-02-21T09:50:17;11.35;;;4.13;;
65835;SDS011;52595;51.608;7.216;2024-02-21T09:52:43;9.15;;;3.80;;
65835;SDS011;52595;51.608;7.216;2024-02-21T09:55:09;12.35;;;3.45;;
65835;SDS011;52595;51.608;7.216;2024-02-21T09:57:37;8.40;;;3.40;;
65835;SDS011;52595;51.608;7.216;2024-02-21T10:00:03;9.52;;;3.75;;
65835;SDS011;52595;51.608;7.216;2024-02-21T10:02:33;8.82;;;3.60;;
65835;SDS011;52595;51.608;7.216;2024-02-21T10:04:58;14.90;;;3.78;;
65835;SDS011;52595;51.608;7.216;2024-02-21T10:07:23;8.23;;;3.30;;
65835;SDS011;52595;51.608;7.216;2024-02-21T10:10:00;9.50;;;3.58;;
65835;SDS011;52595;51.608;7.216;2024-02-21T10:12:28;9.55;;;3.67;;
65835;SDS011;52595;51.608;7.216;2024-02-21T10:15:04;10.18;;;3.38;;
65835;SDS011;52595;51.608;7.216;2024-02-21T10:17:31;10.35;;;3.92;;
65835;SDS011;52595;51.608;7.216;2024-02-21T10:20:09;12.98;;;4.20;;
65835;SDS011;52595;51.608;7.216;2024-02-21T10:22:37;7.50;;;3.75;;
65835;SDS011;52595;51.608;7.216;2024-02-21T10:25:11;18.27;;;4.50;;
65835;SDS011;52595;51.608;7.216;2024-02-21T10:27:40;19.52;;;4.28;;
65835;SDS011;52595;51.608;7.216;2024-02-21T10:30:13;10.50;;;4.90;;
65835;SDS011;52595;51.608;7.216;2024-02-21T10:32:52;7.30;;;3.55;;
65835;SDS011;52595;51.608;7.216;2024-02-21T10:35:28;6.93;;;3.10;;
65835;SDS011;52595;51.608;7.216;2024-02-21T10:37:58;8.05;;;3.70;;
65835;SDS011;52595;51.608;7.216;2024-02-21T10:40:25;12.23;;;3.47;;
65835;SDS011;52595;51.608;7.216;2024-02-21T10:42:58;13.88;;;4.40;;
65835;SDS011;52595;51.608;7.216;2024-02-21T10:45:34;11.10;;;4.10;;
65835;SDS011;52595;51.608;7.216;2024-02-21T10:48:13;12.98;;;4.07;;
65835;SDS011;52595;51.608;7.216;2024-02-21T10:50:56;8.77;;;4.35;;
65835;SDS011;52595;51.608;7.216;2024-02-21T10:56:29;12.60;;;4.68;;
65835;SDS011;52595;51.608;7.216;2024-02-21T10:59:01;12.32;;;4.68;;
65835;SDS011;52595;51.608;7.216;2024-02-21T11:01:30;13.35;;;4.40;;
65835;SDS011;52595;51.608;7.216;2024-02-21T11:04:06;10.98;;;3.95;;
65835;SDS011;52595;51.608;7.216;2024-02-21T11:06:33;10.43;;;3.78;;
65835;SDS011;52595;51.608;7.216;2024-02-21T11:09:04;14.18;;;4.60;;
65835;SDS011;52595;51.608;7.216;2024-02-21T11:11:32;9.93;;;3.70;;
65835;SDS011;52595;51.608;7.216;2024-02-21T11:14:08;10.82;;;4.20;;
65835;SDS011;52595;51.608;7.216;2024-02-21T11:16:38;9.18;;;3.70;;
65835;SDS011;52595;51.608;7.216;2024-02-21T11:19:08;7.78;;;3.95;;
65835;SDS011;52595;51.608;7.216;2024-02-21T11:21:36;12.57;;;4.10;;
65835;SDS011;52595;51.608;7.216;2024-02-21T11:24:05;14.02;;;3.97;;
65835;SDS011;52595;51.608;7.216;2024-02-21T11:26:31;7.85;;;3.38;;
65835;SDS011;52595;51.608;7.216;2024-02-21T11:29:00;15.27;;;4.03;;
65835;SDS011;52595;51.608;7.216;2024-02-21T11:31:38;13.15;;;3.88;;
65835;SDS011;52595;51.608;7.216;2024-02-21T11:34:05;7.57;;;3.45;;
65835;SDS011;52595;51.608;7.216;2024-02-21T11:36:33;7.40;;;3.58;;
65835;SDS011;52595;51.608;7.216;2024-02-21T11:39:04;9.55;;;3.47;;
65835;SDS011;52595;51.608;7.216;2024-02-21T11:41:30;9.23;;;3.50;;
65835;SDS011;52595;51.608;7.216;2024-02-21T11:43:56;10.80;;;4.15;;
65835;SDS011;52595;51.608;7.216;2024-02-21T11:46:22;9.32;;;4.50;;
65835;SDS011;52595;51.608;7.216;2024-02-21T11:48:48;10.68;;;3.85;;
65835;SDS011;52595;51.608;7.216;2024-02-21T11:51:24;8.93;;;4.20;;
65835;SDS011;52595;51.608;7.216;2024-02-21T11:53:52;11.35;;;4.30;;
65835;SDS011;52595;51.608;7.216;2024-02-21T11:56:18;10.30;;;4.28;;
65835;SDS011;52595;51.608;7.216;2024-02-21T11:58:45;14.18;;;4.10;;
65835;SDS011;52595;51.608;7.216;2024-02-21T12:01:12;9.55;;;4.40;;
65835;SDS011;52595;51.608;7.216;2024-02-21T12:03:38;15.05;;;5.38;;
65835;SDS011;52595;51.608;7.216;2024-02-21T12:06:06;11.38;;;4.53;;
65835;SDS011;52595;51.608;7.216;2024-02-21T12:08:41;9.13;;;4.28;;
65835;SDS011;52595;51.608;7.216;2024-02-21T12:11:16;8.80;;;4.40;;
65835;SDS011;52595;51.608;7.216;2024-02-21T12:13:46;10.25;;;4.45;;
65835;SDS011;52595;51.608;7.216;2024-02-21T12:16:12;11.70;;;4.45;;
65835;SDS011;52595;51.608;7.216;2024-02-21T12:18:41;8.93;;;4.40;;
65835;SDS011;52595;51.608;7.216;2024-02-21T12:21:06;7.18;;;3.95;;
65835;SDS011;52595;51.608;7.216;2024-02-21T12:23:32;8.63;;;3.88;;
65835;SDS011;52595;51.608;7.216;2024-02-21T12:25:58;7.90;;;4.03;;
65835;SDS011;52595;51.608;7.216;2024-02-21T12:28:24;7.35;;;4.00;;
65835;SDS011;52595;51.608;7.216;2024-02-21T12:30:50;9.88;;;4.20;;
65835;SDS011;52595;51.608;7.216;2024-02-21T12:33:15;12.88;;;4.38;;
65835;SDS011;52595;51.608;7.216;2024-02-21T12:35:40;8.80;;;4.07;;
65835;SDS011;52595;51.608;7.216;2024-02-21T12:38:06;10.32;;;4.10;;
65835;SDS011;52595;51.608;7.216;2024-02-21T12:40:31;7.22;;;4.03;;
65835;SDS011;52595;51.608;7.216;2024-02-21T12:42:57;9.05;;;3.90;;
65835;SDS011;52595;51.608;7.216;2024-02-21T12:45:24;10.80;;;3.80;;
65835;SDS011;52595;51.608;7.216;2024-02-21T12:47:50;9.45;;;3.80;;
65835;SDS011;52595;51.608;7.216;2024-02-21T12:50:15;11.52;;;4.20;;
65835;SDS011;52595;51.608;7.216;2024-02-21T12:52:40;7.32;;;3.55;;
65835;SDS011;52595;51.608;7.216;2024-02-21T12:55:06;10.32;;;3.70;;
65835;SDS011;52595;51.608;7.216;2024-02-21T12:57:31;9.85;;;3.80;;
65835;SDS011;52595;51.608;7.216;2024-02-21T12:59:57;8.18;;;3.42;;
65835;SDS011;52595;51.608;7.216;2024-02-21T13:02:22;15.90;;;3.22;;
65835;SDS011;52595;51.608;7.216;2024-02-21T13:04:48;12.32;;;3.58;;
65835;SDS011;52595;51.608;7.216;2024-02-21T13:07:13;11.18;;;3.70;;
65835;SDS011;52595;51.608;7.216;2024-02-21T13:09:39;11.02;;;3.60;;
65835;SDS011;52595;51.608;7.216;2024-02-21T13:12:05;12.80;;;3.25;;
65835;SDS011;52595;51.608;7.216;2024-02-21T13:14:31;8.70;;;3.15;;
65835;SDS011;52595;51.608;7.216;2024-02-21T13:16:58;12.45;;;3.30;;
65835;SDS011;52595;51.608;7.216;2024-02-21T13:19:23;8.98;;;3.40;;
65835;SDS011;52595;51.608;7.216;2024-02-21T13:21:48;7.72;;;3.10;;
65835;SDS011;52595;51.608;7.216;2024-02-21T13:24:14;6.45;;;2.85;;
65835;SDS011;52595;51.608;7.216;2024-02-21T13:26:39;10.73;;;4.07;;
65835;SDS011;52595;51.608;7.216;2024-02-21T13:29:04;9.50;;;3.20;;
65835;SDS011;52595;51.608;7.216;2024-02-21T13:31:30;8.32;;;3.45;;
65835;SDS011;52595;51.608;7.216;2024-02-21T13:33:55;14.48;;;3.28;;
65835;SDS011;52595;51.608;7.216;2024-02-21T13:36:21;11.52;;;3.85;;
65835;SDS011;52595;51.608;7.216;2024-02-21T13:38:46;6.55;;;3.55;;
65835;SDS011;52595;51.608;7.216;2024-02-21T13:41:12;8.68;;;3.03;;
65835;SDS011;52595;51.608;7.216;2024-02-21T13:43:38;9.20;;;3.42;;
65835;SDS011;52595;51.608;7.216;2024-02-21T13:46:03;7.65;;;3.40;;
65835;SDS011;52595;51.608;7.216;2024-02-21T13:48:30;9.00;;;3.25;;
65835;SDS011;52595;51.608;7.216;2024-02-21T13:50:55;9.40;;;3.50;;
65835;SDS011;52595;51.608;7.216;2024-02-21T13:53:21;8.40;;;3.30;;
65835;SDS011;52595;51.608;7.216;2024-02-21T13:55:47;10.07;;;3.15;;
65835;SDS011;52595;51.608;7.216;2024-02-21T13:58:13;7.68;;;3.10;;
65835;SDS011;52595;51.608;7.216;2024-02-21T14:00:39;6.03;;;3.03;;
65835;SDS011;52595;51.608;7.216;2024-02-21T14:03:04;6.93;;;3.25;;
65835;SDS011;52595;51.608;7.216;2024-02-21T14:05:30;7.55;;;3.20;;
65835;SDS011;52595;51.608;7.216;2024-02-21T14:07:55;9.50;;;3.45;;
65835;SDS011;52595;51.608;7.216;2024-02-21T14:10:21;5.68;;;3.00;;
65835;SDS011;52595;51.608;7.216;2024-02-21T14:12:47;9.23;;;3.25;;
65835;SDS011;52595;51.608;7.216;2024-02-21T14:15:15;7.22;;;3.10;;
65835;SDS011;52595;51.608;7.216;2024-02-21T14:17:41;7.03;;;3.22;;
65835;SDS011;52595;51.608;7.216;2024-02-21T14:20:07;7.57;;;2.90;;
65835;SDS011;52595;51.608;7.216;2024-02-21T14:22:33;7.07;;;4.00;;
65835;SDS011;52595;51.608;7.216;2024-02-21T14:24:59;6.93;;;2.95;;
65835;SDS011;52595;51.608;7.216;2024-02-21T14:27:25;9.20;;;3.10;;
65835;SDS011;52595;51.608;7.216;2024-02-21T14:29:50;7.47;;;3.38;;
65835;SDS011;52595;51.608;7.216;2024-02-21T14:32:16;7.20;;;2.83;;
65835;SDS011;52595;51.608;7.216;2024-02-21T14:34:41;11.15;;;3.20;;
65835;SDS011;52595;51.608;7.216;2024-02-21T14:37:06;8.00;;;3.05;;